Main page
METAR-TAF:

METAR-TAF

Airports :

Eleusina, Greece

latitude: 38-04N, longitude: 023-33E, elevation: 44 m

Current weather observation

The report was made 17 minutes ago, at 07:50 UTC
Calm wind
Temperature 13°C
Humidity 77%
Pressure 1025 hPa
Visibility 10 km or more
Few clouds at a height of 2500 ft
Broken clouds at a height of 18000 ft

METAR: LGEL 040750Z 00000KT 9999 FEW025 BKN180 13/09 Q1025

Time: 10:07 (08:07 UTC)

Forecast

The report was made 3 hours and 7 minutes ago, at 05:00 UTC
Forecast valid from 04 at 06 UTC to 05 at 06 UTC
Wind 10 kt from the North/Northeast
Visibility 10 km or more
Few clouds at a height of 1800 ft
Scattered clouds at a height of 2500 ft
Broken clouds at a height of 7000 ft
Probability 30% :
Temporary
from 04 at 06 UTC to 04 at 12 UTC
Visibility: 5000 m
rain

TAF: LGEL 040500Z 0406/0506 03010KT 9999 FEW018 SCT025 BKN070 PROB30 TEMPO 0406/0412 5000 RA

Weather observations and forecasts of more than 4000 airports (METAR and TAF reports).

The available stations are represented by yellow and red dots on the map.

Hover mouse over dot to see the name of the station.

Then click to see weather observations and forecasts.

To change the map : click on the green buttons with a black cross to zoom in, on the green button with a dash to zoom out, or on the green arrows for adjacent maps.


METAR-TAF: